TimeEST,TemperatureF,Dew PointF,Humidity,Sea Level PressureIn,VisibilityMPH,Wind Direction,Wind SpeedMPH,Gust SpeedMPH,PrecipitationIn,Events,Conditions,WindDirDegrees,DateUTC
12:15 AM,24.3,19.0,80,30.32,10.0,Calm,Calm,-,N/A,,Overcast,0,2014-02-07 05:15:00
12:35 AM,23.9,18.5,80,30.32,10.0,Calm,Calm,-,N/A,,Overcast,0,2014-02-07 05:35:00
12:55 AM,23.9,19.0,82,30.32,10.0,NW,3.5,-,N/A,,Overcast,320,2014-02-07 05:55:00
1:15 AM,23.9,19.2,82,30.32,10.0,Calm,Calm,-,N/A,,Overcast,0,2014-02-07 06:15:00
1:35 AM,23.7,19.0,82,30.32,10.0,NNW,3.5,-,N/A,,Overcast,330,2014-02-07 06:35:00
1:55 AM,23.7,19.0,82,30.32,10.0,Calm,Calm,-,N/A,,Overcast,0,2014-02-07 06:55:00
2:15 AM,23.7,19.0,82,30.32,10.0,WNW,4.6,-,N/A,,Overcast,300,2014-02-07 07:15:00
2:35 AM,23.7,18.9,82,30.33,10.0,NW,4.6,-,N/A,,Overcast,320,2014-02-07 07:35:00
2:55 AM,23.7,19.2,83,30.33,10.0,NNW,3.5,-,N/A,,Overcast,340,2014-02-07 07:55:00
3:15 AM,23.5,18.9,82,30.34,7.0,NW,4.6,-,N/A,,Overcast,320,2014-02-07 08:15:00
3:35 AM,23.4,19.0,84,30.34,5.0,NW,3.5,-,N/A,,Overcast,320,2014-02-07 08:35:00
3:55 AM,23.0,18.7,84,30.33,7.0,NW,4.6,-,N/A,,Overcast,310,2014-02-07 08:55:00
4:15 AM,23.0,18.5,83,30.34,10.0,NW,4.6,-,N/A,,Overcast,320,2014-02-07 09:15:00
4:35 AM,23.0,18.0,81,30.34,10.0,NW,4.6,-,N/A,,Overcast,320,2014-02-07 09:35:00
4:55 AM,23.0,18.0,81,30.35,10.0,Calm,Calm,-,N/A,,Overcast,0,2014-02-07 09:55:00
5:15 AM,22.8,17.4,80,30.35,10.0,NW,3.5,-,N/A,,Overcast,310,2014-02-07 10:15:00
5:35 AM,22.8,17.6,80,30.35,7.0,Calm,Calm,-,N/A,,Overcast,0,2014-02-07 10:35:00
5:55 AM,22.8,17.8,81,30.34,7.0,Calm,Calm,-,N/A,,Overcast,0,2014-02-07 10:55:00
6:15 AM,22.8,17.8,81,30.34,10.0,Calm,Calm,-,N/A,,Overcast,0,2014-02-07 11:15:00
6:35 AM,23.0,17.8,80,30.34,10.0,Calm,Calm,-,N/A,,Overcast,0,2014-02-07 11:35:00
6:55 AM,22.8,18.3,83,30.34,10.0,Calm,Calm,-,N/A,,Overcast,0,2014-02-07 11:55:00
7:15 AM,22.8,18.3,83,30.33,10.0,Calm,Calm,-,N/A,,Overcast,0,2014-02-07 12:15:00
7:35 AM,23.0,18.3,82,30.33,10.0,NNW,3.5,-,N/A,,Overcast,340,2014-02-07 12:35:00
7:55 AM,23.0,18.3,82,30.34,10.0,Calm,Calm,-,N/A,,Overcast,0,2014-02-07 12:55:00
8:15 AM,23.0,18.5,83,30.34,10.0,Calm,Calm,-,N/A,,Overcast,0,2014-02-07 13:15:00
8:35 AM,23.0,19.4,86,30.36,5.0,Calm,Calm,-,N/A,,Overcast,0,2014-02-07 13:35:00
8:55 AM,23.0,19.4,86,30.37,3.0,Calm,Calm,-,N/A,,Overcast,0,2014-02-07 13:55:00
9:15 AM,23.4,19.6,85,30.38,4.0,Calm,Calm,-,N/A,,Overcast,0,2014-02-07 14:15:00
9:35 AM,23.7,20.3,87,30.38,4.0,Calm,Calm,-,N/A,,Overcast,0,2014-02-07 14:35:00
9:55 AM,23.9,20.3,86,30.37,7.0,Calm,Calm,-,N/A,,Overcast,0,2014-02-07 14:55:00
10:15 AM,24.1,20.3,85,30.37,10.0,Calm,Calm,-,N/A,,Overcast,0,2014-02-07 15:15:00
10:35 AM,24.1,20.1,85,30.39,7.0,NNW,3.5,-,N/A,,Overcast,340,2014-02-07 15:35:00
10:55 AM,24.4,20.3,84,30.39,10.0,WNW,3.5,-,N/A,,Overcast,300,2014-02-07 15:55:00
11:15 AM,24.6,20.3,84,30.39,10.0,Calm,Calm,-,N/A,,Overcast,0,2014-02-07 16:15:00
11:35 AM,25.0,20.8,84,30.39,10.0,Calm,Calm,-,N/A,,Overcast,0,2014-02-07 16:35:00
11:55 AM,25.0,20.1,82,30.38,10.0,NW,3.5,-,N/A,,Overcast,320,2014-02-07 16:55:00
12:15 PM,25.0,20.1,82,30.38,10.0,NNW,3.5,-,N/A,,Overcast,340,2014-02-07 17:15:00
12:35 PM,25.3,20.3,81,30.38,10.0,NW,3.5,-,N/A,,Overcast,310,2014-02-07 17:35:00
12:55 PM,25.5,20.1,80,30.37,10.0,NNW,3.5,-,N/A,,Overcast,330,2014-02-07 17:55:00
1:15 PM,25.5,20.1,80,30.36,10.0,NW,3.5,-,N/A,,Overcast,310,2014-02-07 18:15:00
1:35 PM,25.9,20.1,79,30.35,10.0,WNW,3.5,-,N/A,,Overcast,290,2014-02-07 18:35:00
1:55 PM,26.1,20.1,78,30.35,10.0,Calm,Calm,-,N/A,,Overcast,0,2014-02-07 18:55:00
2:15 PM,26.1,19.8,77,30.36,10.0,NW,4.6,-,N/A,,Overcast,310,2014-02-07 19:15:00
2:35 PM,26.2,19.9,77,30.36,10.0,NNW,4.6,-,N/A,,Overcast,330,2014-02-07 19:35:00
2:55 PM,26.6,19.8,75,30.35,10.0,Calm,Calm,-,N/A,,Overcast,0,2014-02-07 19:55:00
3:15 PM,26.8,19.8,75,30.35,10.0,NNW,3.5,-,N/A,,Overcast,330,2014-02-07 20:15:00
3:35 PM,27.0,18.7,71,30.34,10.0,WNW,3.5,-,N/A,,Overcast,300,2014-02-07 20:35:00
3:55 PM,27.5,18.7,69,30.34,10.0,WNW,3.5,-,N/A,,Overcast,300,2014-02-07 20:55:00
4:15 PM,27.3,18.5,69,30.34,10.0,Calm,Calm,-,N/A,,Scattered Clouds,0,2014-02-07 21:15:00
4:35 PM,27.5,18.7,69,30.34,10.0,Calm,Calm,-,N/A,,Scattered Clouds,0,2014-02-07 21:35:00
4:55 PM,27.0,18.5,70,30.35,10.0,Calm,Calm,-,N/A,,Mostly Cloudy,0,2014-02-07 21:55:00
5:15 PM,26.6,18.7,72,30.35,10.0,North,4.6,-,N/A,,Overcast,10,2014-02-07 22:15:00
5:35 PM,26.1,18.1,72,30.35,10.0,Calm,Calm,-,N/A,,Overcast,0,2014-02-07 22:35:00
5:55 PM,25.7,18.3,74,30.34,10.0,Calm,Calm,-,N/A,,Overcast,0,2014-02-07 22:55:00
6:15 PM,25.5,17.6,72,30.35,10.0,Calm,Calm,-,N/A,,Overcast,0,2014-02-07 23:15:00
6:35 PM,25.2,17.6,73,30.34,10.0,Calm,Calm,-,N/A,,Mostly Cloudy,0,2014-02-07 23:35:00
6:55 PM,24.4,17.6,75,30.33,10.0,Calm,Calm,-,N/A,,Scattered Clouds,0,2014-02-07 23:55:00
7:15 PM,24.1,17.1,75,30.34,10.0,Calm,Calm,-,N/A,,Clear,0,2014-02-08 00:15:00
7:35 PM,23.5,17.6,78,30.34,10.0,Calm,Calm,-,N/A,,Clear,0,2014-02-08 00:35:00
7:55 PM,22.6,17.8,82,30.33,10.0,Calm,Calm,-,N/A,,Clear,0,2014-02-08 00:55:00
8:15 PM,22.6,17.4,80,30.33,10.0,Calm,Calm,-,N/A,,Clear,0,2014-02-08 01:15:00
8:35 PM,23.0,17.8,80,30.32,10.0,Calm,Calm,-,N/A,,Clear,0,2014-02-08 01:35:00
8:55 PM,22.1,18.1,85,30.32,10.0,NNE,3.5,-,N/A,,Clear,30,2014-02-08 01:55:00
9:15 PM,22.5,17.6,82,30.32,10.0,Calm,Calm,-,N/A,,Clear,0,2014-02-08 02:15:00
9:35 PM,21.2,18.0,87,30.31,10.0,Calm,Calm,-,N/A,,Clear,0,2014-02-08 02:35:00
9:55 PM,21.9,17.4,83,30.31,10.0,Calm,Calm,-,N/A,,Clear,0,2014-02-08 02:55:00
10:15 PM,20.7,17.4,87,30.30,10.0,Calm,Calm,-,N/A,,Clear,0,2014-02-08 03:15:00
10:35 PM,21.2,17.4,85,30.31,10.0,Calm,Calm,-,N/A,,Clear,0,2014-02-08 03:35:00
10:55 PM,20.3,17.6,89,30.31,10.0,Calm,Calm,-,N/A,,Clear,0,2014-02-08 03:55:00
11:15 PM,20.7,18.0,89,30.30,10.0,Calm,Calm,-,N/A,,Clear,0,2014-02-08 04:15:00
11:35 PM,20.3,18.1,91,30.29,10.0,NE,3.5,-,N/A,,Clear,40,2014-02-08 04:35:00
11:55 PM,20.7,18.1,90,30.28,10.0,NNE,3.5,-,N/A,,Clear,30,2014-02-08 04:55:00